Szolnok, Hungary

1:36 AM CEST on May 07, 2015 (GMT +0200)
Szolnok | | Change Station
CLOSE
Current Station
Personal Weather Station
Location: Szolnok, Jasz-Nagykun-Szolnok
Elevation: 282 ft
Nearby Weather Stations

Elev 282 ft 47.17 °N, 20.18 °E | Updated 3 minutes ago

Clear
Clear
60.0 °F
Feels Like 60.0 °F
N
8.0
Wind Variable Wind from NW
Gusts 12.7 mph

Today
High -- | Low -- °F
--% Chance of Precip.
Yesterday
High -- | Low -- °F
Precip. -- in
5:14 AM 7:57 PM
Waning Gibbous, 92% visible
Pressure 29.92 in
Visibility -9999.0 miles
Clouds
Dew Point 56 °F
Humidity 88%
Rainfall 0.00 in
Snow Depth Not available.
UV Not available.
Pollen Not available.
Air Quality Not available.
Flu Activity Not available.
METAR LHBP 062330Z 30015KT CAVOK 15/13 Q1013 NOSIG

More Conditions Fewer Conditions

Pressure 29.92 in
Visibility -9999.0 miles
Clouds
Dew Point 56 °F
Humidity 88%
Rainfall 0.00 in
Snow Depth Not available.
UV Not available.
Pollen Not available.
Air Quality Not available.
Flu Activity Not available.
METAR LHBP 062330Z 30015KT CAVOK 15/13 Q1013 NOSIG

More Conditions Fewer Conditions

10-Day Weather Forecast

Almanac

Astronomy

May. 07, 2015 Rise Set
Actual Time
Civil Twilight
Nautical Twilight
Astronomical Twilight
Moon
Length of Visible Light
Length of Day
Tomorrow will be .
, % of the Moon is Illuminated

Today's Extremes

Country Highs Country Lows

Community

WunderPhotos

Upload Photos

1,819,042 photos uploaded!

WunderBlogs® & News

Nearby

Air Quality

  Air Quality AQ Index Pollutant
Not available.

Snow Depth

Station Depth Elevation

Earthquake Activity

City Distance Mag. Time & Date
Minimum magnitude displayed is 2.5.

Coastal Water Temperatures

Place Temperature

Stations

Nearby Weather Stations

Station Location Temp. Windchill Dew Point Humidity Wind Precip. Elev Updated Type